Baghdad, Iraq

12:19 AM AST on July 12, 2014 (GMT +0300)
BAGHDAD INTL (ORBI) Elev 115 ft | 33.26 °N, 44.23 °E | Change Station

Current weather conditions updated 19 minutes ago

Clear
Clear
91 °F
Feels Like 91 °F
N
6
Wind Variable Wind from NNW

Today is forecast to be Warmer than yesterday.

Today
High -- | Low -- °F
--% Chance of Precip.
Yesterday
High -- | Low -- °F
Precip. -- in
5:02 AM 7:14 PM
Waxing Gibbous, 99% visible
Pressure 29.56 in
Visibility -9999.0 miles
Clouds
Dew Point 45 °F
Humidity 20%
Rainfall 0.00 in
Snow Depth Not available.
UV Not available.
Pollen Not available.
Air Quality Not available.
Flu Activity Not available.
METAR ORBI 112100Z 33005KT CAVOK 33/07 Q1001 NOSIG

More Conditions Fewer Conditions

Pressure 29.56 in
Visibility -9999.0 miles
Clouds
Dew Point 45 °F
Humidity 20%
Rainfall 0.00 in
Snow Depth Not available.
UV Not available.
Pollen Not available.
Air Quality Not available.
Flu Activity Not available.
METAR ORBI 112100Z 33005KT CAVOK 33/07 Q1001 NOSIG

More Conditions Fewer Conditions

10-Day Weather Forecast

Almanac

Astronomy

Jul. 12, 2014 Rise Set
Actual Time 5:02 AM AST 7:14 PM AST
Civil Twilight 4:34 AM AST 7:42 PM AST
Nautical Twilight 3:59 AM AST 8:17 PM AST
Astronomical Twilight 3:22 AM AST 8:54 PM AST
Moon 7:02 PM AST (7/12) 4:52 AM AST (7/12)
Length of Visible Light 15h 08m
Length of Day
14h 11m
Tomorrow will be 0m 55s shorter.
Waxing Gibbous, 99% of the Moon is Illuminated
Jul 11
Waxing Gibbous
Jul 12
Full
Jul 18
Last Quarter
Jul 26
New
Aug 3
First Quarter

Yesterday's Extremes

Country Highs Country Lows

Community

WunderPhotos

Upload Photos

1,732,567 photos uploaded!

WunderBlogs® & News

Nearby

Snow Depth

Not available.

Earthquake Activity

City Distance Mag. Time & Date
No recent earthquake activity has been reported nearby.
Minimum magnitude displayed is 2.5.

Coastal Water Temperatures

Place Temperature
No Stations Reporting

Nearby Weather Stations

There are no personal weather stations in this area.